sensor_id;sensor_type;location;lat;lon;timestamp;pressure;altitude;pressure_sealevel;temperature;humidity
37824;BME280;23667;43.246;26.576;2022-12-08T00:00:47;99394.22;;;2.88;100.00
37824;BME280;23667;43.246;26.576;2022-12-08T00:03:12;99380.47;;;2.86;100.00
37824;BME280;23667;43.246;26.576;2022-12-08T00:05:38;99400.25;;;2.90;100.00
37824;BME280;23667;43.246;26.576;2022-12-08T00:08:26;99403.66;;;2.91;100.00
37824;BME280;23667;43.246;26.576;2022-12-08T00:11:12;99407.09;;;2.84;100.00
37824;BME280;23667;43.246;26.576;2022-12-08T00:13:37;99412.22;;;2.45;100.00
37824;BME280;23667;43.246;26.576;2022-12-08T00:16:03;99410.50;;;2.43;100.00
37824;BME280;23667;43.246;26.576;2022-12-08T00:18:28;99408.78;;;2.54;100.00
37824;BME280;23667;43.246;26.576;2022-12-08T00:20:57;99418.22;;;2.57;100.00
37824;BME280;23667;43.246;26.576;2022-12-08T00:23:23;99425.13;;;2.76;100.00
37824;BME280;23667;43.246;26.576;2022-12-08T00:25:49;99430.28;;;2.76;100.00
37824;BME280;23667;43.246;26.576;2022-12-08T00:28:14;99425.13;;;2.76;100.00
37824;BME280;23667;43.246;26.576;2022-12-08T00:30:41;99434.56;;;2.65;100.00
37824;BME280;23667;43.246;26.576;2022-12-08T00:33:06;99428.56;;;2.58;100.00
37824;BME280;23667;43.246;26.576;2022-12-08T00:35:32;99433.66;;;2.50;100.00
37824;BME280;23667;43.246;26.576;2022-12-08T00:37:58;99434.53;;;2.43;100.00
37824;BME280;23667;43.246;26.576;2022-12-08T00:40:26;99434.53;;;2.59;100.00
37824;BME280;23667;43.246;26.576;2022-12-08T00:42:51;99430.25;;;2.71;100.00
37824;BME280;23667;43.246;26.576;2022-12-08T00:45:17;99438.00;;;2.79;100.00
37824;BME280;23667;43.246;26.576;2022-12-08T00:47:42;99438.00;;;2.73;100.00
37824;BME280;23667;43.246;26.576;2022-12-08T00:50:08;99431.97;;;2.65;100.00
37824;BME280;23667;43.246;26.576;2022-12-08T00:52:33;99422.56;;;2.70;100.00
37824;BME280;23667;43.246;26.576;2022-12-08T00:54:59;99425.09;;;2.56;100.00
37824;BME280;23667;43.246;26.576;2022-12-08T00:57:24;99424.22;;;2.54;100.00
37824;BME280;23667;43.246;26.576;2022-12-08T00:59:50;99431.94;;;2.36;100.00
37824;BME280;23667;43.246;26.576;2022-12-08T01:05:38;99416.56;;;2.79;100.00
37824;BME280;23667;43.246;26.576;2022-12-08T01:08:07;99414.84;;;2.99;100.00
37824;BME280;23667;43.246;26.576;2022-12-08T01:10:37;99411.38;;;3.06;100.00
37824;BME280;23667;43.246;26.576;2022-12-08T01:13:04;99417.38;;;3.17;100.00
37824;BME280;23667;43.246;26.576;2022-12-08T01:15:29;99413.09;;;3.10;100.00
37824;BME280;23667;43.246;26.576;2022-12-08T01:17:55;99424.25;;;2.99;100.00
37824;BME280;23667;43.246;26.576;2022-12-08T01:20:20;99422.53;;;3.04;100.00
37824;BME280;23667;43.246;26.576;2022-12-08T01:22:46;99413.94;;;3.15;100.00
37824;BME280;23667;43.246;26.576;2022-12-08T01:25:11;99405.38;;;3.01;100.00
37824;BME280;23667;43.246;26.576;2022-12-08T01:27:37;99418.25;;;3.03;100.00
37824;BME280;23667;43.246;26.576;2022-12-08T01:30:02;99422.56;;;2.91;100.00
37824;BME280;23667;43.246;26.576;2022-12-08T01:32:28;99431.97;;;2.89;100.00
37824;BME280;23667;43.246;26.576;2022-12-08T01:34:53;99422.56;;;2.94;100.00
37824;BME280;23667;43.246;26.576;2022-12-08T01:37:19;99425.16;;;2.90;100.00
37824;BME280;23667;43.246;26.576;2022-12-08T01:39:44;99424.25;;;2.74;100.00
37824;BME280;23667;43.246;26.576;2022-12-08T01:42:18;99417.41;;;2.76;100.00
37824;BME280;23667;43.246;26.576;2022-12-08T01:44:51;99417.41;;;2.88;100.00
37824;BME280;23667;43.246;26.576;2022-12-08T01:47:17;99426.00;;;2.87;100.00
37824;BME280;23667;43.246;26.576;2022-12-08T01:49:43;99428.56;;;2.83;100.00
37824;BME280;23667;43.246;26.576;2022-12-08T01:52:22;99434.56;;;2.83;100.00
37824;BME280;23667;43.246;26.576;2022-12-08T01:54:53;99442.31;;;2.79;100.00
37824;BME280;23667;43.246;26.576;2022-12-08T01:57:44;99442.31;;;2.79;100.00
37824;BME280;23667;43.246;26.576;2022-12-08T02:00:13;99445.72;;;2.81;100.00
37824;BME280;23667;43.246;26.576;2022-12-08T02:03:02;99452.59;;;2.76;100.00
37824;BME280;23667;43.246;26.576;2022-12-08T02:05:30;99447.44;;;2.80;100.00
37824;BME280;23667;43.246;26.576;2022-12-08T02:07:59;99447.44;;;2.68;100.00
37824;BME280;23667;43.246;26.576;2022-12-08T02:10:28;99458.59;;;2.64;100.00
37824;BME280;23667;43.246;26.576;2022-12-08T02:12:55;99458.59;;;2.68;100.00
37824;BME280;23667;43.246;26.576;2022-12-08T02:15:38;99468.91;;;2.76;100.00
37824;BME280;23667;43.246;26.576;2022-12-08T02:18:40;99468.91;;;2.82;100.00
37824;BME280;23667;43.246;26.576;2022-12-08T02:27:10;99474.06;;;3.13;100.00
37824;BME280;23667;43.246;26.576;2022-12-08T02:35:10;99477.50;;;3.03;100.00
37824;BME280;23667;43.246;26.576;2022-12-08T02:37:41;99480.09;;;2.93;100.00
37824;BME280;23667;43.246;26.576;2022-12-08T02:40:27;99493.84;;;3.08;100.00
37824;BME280;23667;43.246;26.576;2022-12-08T02:45:36;99486.91;;;2.84;100.00
37824;BME280;23667;43.246;26.576;2022-12-08T02:48:03;99488.63;;;2.66;100.00
37824;BME280;23667;43.246;26.576;2022-12-08T02:50:29;99498.03;;;2.50;100.00
37824;BME280;23667;43.246;26.576;2022-12-08T02:52:55;99498.06;;;2.58;100.00
37824;BME280;23667;43.246;26.576;2022-12-08T02:56:02;99505.78;;;2.69;100.00
37824;BME280;23667;43.246;26.576;2022-12-08T03:04:07;99496.38;;;2.83;100.00
37824;BME280;23667;43.246;26.576;2022-12-08T03:12:04;99502.28;;;2.39;100.00
37824;BME280;23667;43.246;26.576;2022-12-08T03:14:32;99503.97;;;2.33;100.00
37824;BME280;23667;43.246;26.576;2022-12-08T03:16:59;99503.16;;;2.47;100.00
37824;BME280;23667;43.246;26.576;2022-12-08T03:19:27;99504.91;;;2.65;100.00
37824;BME280;23667;43.246;26.576;2022-12-08T03:21:58;99504.09;;;2.74;100.00
37824;BME280;23667;43.246;26.576;2022-12-08T03:24:34;99507.56;;;3.05;100.00
37824;BME280;23667;43.246;26.576;2022-12-08T03:27:12;99507.56;;;3.13;100.00
37824;BME280;23667;43.246;26.576;2022-12-08T03:29:39;99511.00;;;3.38;100.00
37824;BME280;23667;43.246;26.576;2022-12-08T03:35:29;99521.28;;;3.52;100.00
37824;BME280;23667;43.246;26.576;2022-12-08T03:38:13;99522.16;;;3.60;100.00
37824;BME280;23667;43.246;26.576;2022-12-08T03:44:26;99517.81;;;3.91;100.00
37824;BME280;23667;43.246;26.576;2022-12-08T03:46:51;99516.88;;;4.04;100.00
37824;BME280;23667;43.246;26.576;2022-12-08T03:49:17;99510.81;;;4.16;100.00
37824;BME280;23667;43.246;26.576;2022-12-08T03:51:42;99515.16;;;4.13;100.00
37824;BME280;23667;43.246;26.576;2022-12-08T03:54:08;99519.38;;;4.26;100.00
37824;BME280;23667;43.246;26.576;2022-12-08T03:56:36;99524.50;;;4.40;100.00
37824;BME280;23667;43.246;26.576;2022-12-08T03:59:02;99525.38;;;4.42;100.00
37824;BME280;23667;43.246;26.576;2022-12-08T04:01:28;99518.50;;;4.36;100.00
37824;BME280;23667;43.246;26.576;2022-12-08T04:03:53;99514.25;;;4.24;100.00
37824;BME280;23667;43.246;26.576;2022-12-08T04:06:20;99513.25;;;4.51;100.00
37824;BME280;23667;43.246;26.576;2022-12-08T04:08:46;99514.16;;;4.47;100.00
37824;BME280;23667;43.246;26.576;2022-12-08T04:11:12;99515.84;;;4.48;100.00
37824;BME280;23667;43.246;26.576;2022-12-08T04:13:39;99519.19;;;4.72;100.00
37824;BME280;23667;43.246;26.576;2022-12-08T04:16:05;99512.34;;;4.65;100.00
37824;BME280;23667;43.246;26.576;2022-12-08T04:18:32;99514.94;;;4.60;100.00
37824;BME280;23667;43.246;26.576;2022-12-08T04:20:57;99515.91;;;4.44;100.00
37824;BME280;23667;43.246;26.576;2022-12-08T04:23:23;99520.16;;;4.51;100.00
37824;BME280;23667;43.246;26.576;2022-12-08T04:25:50;99527.91;;;4.46;100.00
37824;BME280;23667;43.246;26.576;2022-12-08T04:28:16;99521.91;;;4.43;100.00
37824;BME280;23667;43.246;26.576;2022-12-08T04:30:41;99527.88;;;4.59;100.00
37824;BME280;23667;43.246;26.576;2022-12-08T04:33:07;99527.88;;;4.55;100.00
37824;BME280;23667;43.246;26.576;2022-12-08T04:35:32;99525.38;;;4.39;100.00
37824;BME280;23667;43.246;26.576;2022-12-08T04:37:57;99539.09;;;4.50;100.00
37824;BME280;23667;43.246;26.576;2022-12-08T04:40:23;99527.00;;;4.58;100.00
37824;BME280;23667;43.246;26.576;2022-12-08T04:42:48;99530.34;;;4.77;100.00
37824;BME280;23667;43.246;26.576;2022-12-08T04:45:14;99532.09;;;4.73;100.00
37824;BME280;23667;43.246;26.576;2022-12-08T04:47:40;99538.97;;;4.70;100.00
37824;BME280;23667;43.246;26.576;2022-12-08T04:50:06;99537.28;;;4.73;100.00
37824;BME280;23667;43.246;26.576;2022-12-08T04:52:31;99541.50;;;4.79;100.00
37824;BME280;23667;43.246;26.576;2022-12-08T04:54:57;99536.44;;;4.64;100.00
37824;BME280;23667;43.246;26.576;2022-12-08T04:57:22;99540.69;;;4.75;100.00
37824;BME280;23667;43.246;26.576;2022-12-08T04:59:48;99533.81;;;4.74;100.00
37824;BME280;23667;43.246;26.576;2022-12-08T05:02:13;99532.88;;;4.85;100.00
37824;BME280;23667;43.246;26.576;2022-12-08T05:04:39;99524.28;;;4.81;100.00
37824;BME280;23667;43.246;26.576;2022-12-08T05:07:04;99528.59;;;4.79;100.00
37824;BME280;23667;43.246;26.576;2022-12-08T05:09:30;99526.91;;;4.76;100.00
37824;BME280;23667;43.246;26.576;2022-12-08T05:11:56;99533.78;;;4.76;100.00
37824;BME280;23667;43.246;26.576;2022-12-08T05:14:34;99533.97;;;4.34;100.00
37824;BME280;23667;43.246;26.576;2022-12-08T05:17:00;99536.63;;;4.22;100.00
37824;BME280;23667;43.246;26.576;2022-12-08T05:19:25;99529.78;;;4.15;100.00
37824;BME280;23667;43.246;26.576;2022-12-08T05:21:51;99528.84;;;4.25;100.00
37824;BME280;23667;43.246;26.576;2022-12-08T05:24:16;99533.94;;;4.53;100.00
37824;BME280;23667;43.246;26.576;2022-12-08T05:26:41;99544.34;;;4.25;100.00
37824;BME280;23667;43.246;26.576;2022-12-08T05:29:07;99552.13;;;4.19;100.00
37824;BME280;23667;43.246;26.576;2022-12-08T05:31:33;99553.75;;;4.45;100.00
37824;BME280;23667;43.246;26.576;2022-12-08T05:33:58;99555.53;;;4.24;100.00
37824;BME280;23667;43.246;26.576;2022-12-08T05:36:24;99565.03;;;4.24;100.00
37824;BME280;23667;43.246;26.576;2022-12-08T05:38:49;99578.78;;;4.29;100.00
37824;BME280;23667;43.246;26.576;2022-12-08T05:41:17;99567.53;;;4.44;100.00
37824;BME280;23667;43.246;26.576;2022-12-08T05:43:43;99570.97;;;4.47;100.00
37824;BME280;23667;43.246;26.576;2022-12-08T05:46:09;99574.38;;;4.51;100.00
37824;BME280;23667;43.246;26.576;2022-12-08T05:48:35;99579.56;;;4.45;100.00
37824;BME280;23667;43.246;26.576;2022-12-08T05:51:00;99587.38;;;4.32;100.00
37824;BME280;23667;43.246;26.576;2022-12-08T05:53:26;99587.34;;;4.39;100.00
37824;BME280;23667;43.246;26.576;2022-12-08T05:55:52;99591.63;;;4.47;100.00
37824;BME280;23667;43.246;26.576;2022-12-08T05:58:19;99594.22;;;4.37;100.00
37824;BME280;23667;43.246;26.576;2022-12-08T06:00:46;99595.06;;;4.45;100.00
37824;BME280;23667;43.246;26.576;2022-12-08T06:03:12;99600.22;;;4.43;100.00
37824;BME280;23667;43.246;26.576;2022-12-08T06:05:44;99601.94;;;4.53;100.00
37824;BME280;23667;43.246;26.576;2022-12-08T06:08:10;99600.00;;;4.91;100.00
37824;BME280;23667;43.246;26.576;2022-12-08T06:10:37;99606.88;;;5.01;100.00
37824;BME280;23667;43.246;26.576;2022-12-08T06:13:03;99612.97;;;4.82;100.00
37824;BME280;23667;43.246;26.576;2022-12-08T06:15:28;99605.22;;;4.85;100.00
37824;BME280;23667;43.246;26.576;2022-12-08T06:17:54;99607.81;;;4.82;100.00
37824;BME280;23667;43.246;26.576;2022-12-08T06:20:19;99608.66;;;4.91;100.00
37824;BME280;23667;43.246;26.576;2022-12-08T06:22:45;99617.31;;;4.83;100.00
37824;BME280;23667;43.246;26.576;2022-12-08T06:25:10;99615.53;;;4.97;100.00
37824;BME280;23667;43.246;26.576;2022-12-08T06:27:36;99621.44;;;5.16;100.00
37824;BME280;23667;43.246;26.576;2022-12-08T06:30:02;99613.69;;;5.16;100.00
37824;BME280;23667;43.246;26.576;2022-12-08T06:32:36;99617.22;;;5.01;100.00
37824;BME280;23667;43.246;26.576;2022-12-08T06:35:10;99617.19;;;5.02;100.00
37824;BME280;23667;43.246;26.576;2022-12-08T06:37:53;99611.84;;;5.32;100.00
37824;BME280;23667;43.246;26.576;2022-12-08T06:40:19;99605.84;;;5.30;100.00
37824;BME280;23667;43.246;26.576;2022-12-08T06:42:44;99603.03;;;5.57;100.00
37824;BME280;23667;43.246;26.576;2022-12-08T06:45:15;99597.78;;;5.71;100.00
37824;BME280;23667;43.246;26.576;2022-12-08T06:47:41;99593.97;;;4.93;100.00
37824;BME280;23667;43.246;26.576;2022-12-08T06:50:09;99592.25;;;4.97;100.00
37824;BME280;23667;43.246;26.576;2022-12-08T06:52:35;99591.97;;;5.35;100.00
37824;BME280;23667;43.246;26.576;2022-12-08T06:55:00;99600.53;;;5.48;100.00
37824;BME280;23667;43.246;26.576;2022-12-08T06:57:26;99596.81;;;5.77;100.00
37824;BME280;23667;43.246;26.576;2022-12-08T06:59:51;99591.00;;;5.55;100.00
37824;BME280;23667;43.246;26.576;2022-12-08T07:02:17;99595.38;;;5.45;100.00
37824;BME280;23667;43.246;26.576;2022-12-08T07:04:42;99591.06;;;5.44;100.00
37824;BME280;23667;43.246;26.576;2022-12-08T07:07:08;99597.13;;;5.41;100.00
37824;BME280;23667;43.246;26.576;2022-12-08T07:09:33;99598.78;;;5.50;100.00
37824;BME280;23667;43.246;26.576;2022-12-08T07:11:59;99602.44;;;5.21;100.00
37824;BME280;23667;43.246;26.576;2022-12-08T07:14:24;99602.47;;;5.15;100.00
37824;BME280;23667;43.246;26.576;2022-12-08T07:16:51;99596.13;;;5.58;100.00
37824;BME280;23667;43.246;26.576;2022-12-08T07:19:17;99590.81;;;5.73;100.00
37824;BME280;23667;43.246;26.576;2022-12-08T07:21:42;99600.16;;;5.94;100.00
37824;BME280;23667;43.246;26.576;2022-12-08T07:24:08;99609.50;;;6.09;100.00
37824;BME280;23667;43.246;26.576;2022-12-08T07:26:34;99607.75;;;6.14;100.00
37824;BME280;23667;43.246;26.576;2022-12-08T07:28:59;99608.81;;;5.93;100.00
37824;BME280;23667;43.246;26.576;2022-12-08T07:31:26;99610.44;;;6.00;100.00
37824;BME280;23667;43.246;26.576;2022-12-08T07:33:53;99605.13;;;6.19;100.00
37824;BME280;23667;43.246;26.576;2022-12-08T07:36:20;99599.38;;;5.84;100.00
37824;BME280;23667;43.246;26.576;2022-12-08T07:38:46;99610.66;;;5.77;100.00
37824;BME280;23667;43.246;26.576;2022-12-08T07:41:16;99612.59;;;5.49;100.00
37824;BME280;23667;43.246;26.576;2022-12-08T07:43:42;99621.25;;;5.43;100.00
37824;BME280;23667;43.246;26.576;2022-12-08T07:46:10;99623.91;;;5.33;100.00
37824;BME280;23667;43.246;26.576;2022-12-08T07:48:36;99608.16;;;5.68;100.00
37824;BME280;23667;43.246;26.576;2022-12-08T07:51:03;99620.13;;;5.77;100.00
37824;BME280;23667;43.246;26.576;2022-12-08T07:53:29;99622.69;;;5.83;100.00
37824;BME280;23667;43.246;26.576;2022-12-08T07:55:55;99630.31;;;6.00;100.00
37824;BME280;23667;43.246;26.576;2022-12-08T07:58:21;99635.66;;;5.77;100.00
37824;BME280;23667;43.246;26.576;2022-12-08T08:00:46;99630.81;;;5.34;100.00
37824;BME280;23667;43.246;26.576;2022-12-08T08:03:12;99634.19;;;5.42;100.00
37824;BME280;23667;43.246;26.576;2022-12-08T08:05:37;99633.00;;;5.86;100.00
37824;BME280;23667;43.246;26.576;2022-12-08T08:08:03;99628.38;;;6.20;100.00
37824;BME280;23667;43.246;26.576;2022-12-08T08:10:29;99629.97;;;6.36;100.00
37824;BME280;23667;43.246;26.576;2022-12-08T08:12:57;99627.34;;;6.38;100.00
37824;BME280;23667;43.246;26.576;2022-12-08T08:15:23;99632.97;;;5.87;100.00
37824;BME280;23667;43.246;26.576;2022-12-08T08:17:49;99638.22;;;5.78;100.00
37824;BME280;23667;43.246;26.576;2022-12-08T08:20:19;99643.50;;;5.64;100.00
37824;BME280;23667;43.246;26.576;2022-12-08T08:22:49;99640.94;;;5.61;100.00
37824;BME280;23667;43.246;26.576;2022-12-08T08:25:16;99644.50;;;5.46;100.00
37824;BME280;23667;43.246;26.576;2022-12-08T08:27:42;99641.91;;;5.48;100.00
37824;BME280;23667;43.246;26.576;2022-12-08T08:30:09;99645.13;;;5.76;100.00
37824;BME280;23667;43.246;26.576;2022-12-08T08:32:36;99639.56;;;6.24;100.00
37824;BME280;23667;43.246;26.576;2022-12-08T08:35:02;99639.19;;;6.60;100.00
37824;BME280;23667;43.246;26.576;2022-12-08T08:37:28;99635.22;;;6.30;100.00
37824;BME280;23667;43.246;26.576;2022-12-08T08:39:54;99625.34;;;6.63;100.00
37824;BME280;23667;43.246;26.576;2022-12-08T08:42:19;99636.22;;;6.91;100.00
37824;BME280;23667;43.246;26.576;2022-12-08T08:44:45;99633.63;;;6.91;100.00
37824;BME280;23667;43.246;26.576;2022-12-08T08:47:10;99619.69;;;7.00;100.00
37824;BME280;23667;43.246;26.576;2022-12-08T08:49:36;99628.69;;;7.36;100.00
37824;BME280;23667;43.246;26.576;2022-12-08T08:52:03;99619.19;;;7.35;100.00
37824;BME280;23667;43.246;26.576;2022-12-08T08:54:28;99620.84;;;7.39;100.00
37824;BME280;23667;43.246;26.576;2022-12-08T08:56:56;99604.03;;;7.06;100.00
37824;BME280;23667;43.246;26.576;2022-12-08T08:59:21;99599.13;;;6.86;100.00
37824;BME280;23667;43.246;26.576;2022-12-08T09:01:47;99595.91;;;6.67;100.00
37824;BME280;23667;43.246;26.576;2022-12-08T09:04:12;99605.09;;;6.22;100.00
37824;BME280;23667;43.246;26.576;2022-12-08T09:06:37;99600.88;;;6.08;100.00
37824;BME280;23667;43.246;26.576;2022-12-08T09:09:04;99600.78;;;6.19;100.00
37824;BME280;23667;43.246;26.576;2022-12-08T09:11:30;99598.63;;;6.56;100.00
37824;BME280;23667;43.246;26.576;2022-12-08T09:13:56;99602.50;;;6.93;100.00
37824;BME280;23667;43.246;26.576;2022-12-08T09:16:22;99599.28;;;7.37;100.00
37824;BME280;23667;43.246;26.576;2022-12-08T09:18:48;99578.50;;;7.39;100.00
37824;BME280;23667;43.246;26.576;2022-12-08T09:21:16;99571.88;;;7.75;100.00
37824;BME280;23667;43.246;26.576;2022-12-08T09:23:47;99563.53;;;8.06;100.00
37824;BME280;23667;43.246;26.576;2022-12-08T09:26:12;99569.56;;;7.57;100.00
37824;BME280;23667;43.246;26.576;2022-12-08T09:28:38;99558.22;;;7.64;100.00
37824;BME280;23667;43.246;26.576;2022-12-08T09:31:04;99554.50;;;7.24;100.00
37824;BME280;23667;43.246;26.576;2022-12-08T09:33:29;99552.53;;;7.40;100.00
37824;BME280;23667;43.246;26.576;2022-12-08T09:35:55;99537.22;;;7.76;100.00
37824;BME280;23667;43.246;26.576;2022-12-08T09:38:20;99534.97;;;7.56;100.00
37824;BME280;23667;43.246;26.576;2022-12-08T09:40:53;99526.13;;;7.68;100.00
37824;BME280;23667;43.246;26.576;2022-12-08T09:46:06;99523.25;;;7.83;100.00
37824;BME280;23667;43.246;26.576;2022-12-08T09:48:40;99531.63;;;7.97;100.00
37824;BME280;23667;43.246;26.576;2022-12-08T09:51:07;99534.63;;;7.76;100.00
37824;BME280;23667;43.246;26.576;2022-12-08T09:53:38;99523.53;;;8.14;100.00
37824;BME280;23667;43.246;26.576;2022-12-08T09:56:18;99514.34;;;8.43;100.00
37824;BME280;23667;43.246;26.576;2022-12-08T10:01:39;99493.22;;;8.96;100.00
37824;BME280;23667;43.246;26.576;2022-12-08T10:04:41;99498.44;;;8.13;100.00
37824;BME280;23667;43.246;26.576;2022-12-08T10:07:52;99500.94;;;8.19;100.00
37824;BME280;23667;43.246;26.576;2022-12-08T10:10:21;99501.91;;;7.66;100.00
37824;BME280;23667;43.246;26.576;2022-12-08T10:13:02;99503.28;;;7.87;100.00
37824;BME280;23667;43.246;26.576;2022-12-08T10:18:22;99500.59;;;7.42;100.00
37824;BME280;23667;43.246;26.576;2022-12-08T10:20:50;99501.16;;;7.61;100.00
37824;BME280;23667;43.246;26.576;2022-12-08T10:23:24;99501.06;;;7.65;100.00
37824;BME280;23667;43.246;26.576;2022-12-08T10:25:57;99496.47;;;7.81;100.00
37824;BME280;23667;43.246;26.576;2022-12-08T10:28:24;99500.03;;;8.20;100.00
37824;BME280;23667;43.246;26.576;2022-12-08T10:30:53;99500.81;;;8.24;100.00
37824;BME280;23667;43.246;26.576;2022-12-08T10:33:20;99495.03;;;8.10;100.00
37824;BME280;23667;43.246;26.576;2022-12-08T10:35:52;99493.03;;;8.24;100.00
37824;BME280;23667;43.246;26.576;2022-12-08T10:38:31;99489.22;;;8.42;100.00
37824;BME280;23667;43.246;26.576;2022-12-08T10:41:02;99479.56;;;8.05;100.00
37824;BME280;23667;43.246;26.576;2022-12-08T10:43:29;99480.75;;;8.31;100.00
37824;BME280;23667;43.246;26.576;2022-12-08T10:46:12;99468.41;;;8.43;100.00
37824;BME280;23667;43.246;26.576;2022-12-08T10:48:56;99466.91;;;8.32;100.00
37824;BME280;23667;43.246;26.576;2022-12-08T10:51:39;99476.25;;;7.97;100.00
37824;BME280;23667;43.246;26.576;2022-12-08T10:54:32;99476.81;;;7.68;100.00
37824;BME280;23667;43.246;26.576;2022-12-08T10:56:59;99479.91;;;7.39;100.00
37824;BME280;23667;43.246;26.576;2022-12-08T10:59:25;99480.06;;;7.29;100.00
37824;BME280;23667;43.246;26.576;2022-12-08T11:01:53;99490.28;;;7.39;100.00
37824;BME280;23667;43.246;26.576;2022-12-08T11:04:21;99477.47;;;7.31;100.00
37824;BME280;23667;43.246;26.576;2022-12-08T11:06:49;99482.53;;;7.37;100.00
37824;BME280;23667;43.246;26.576;2022-12-08T11:14:24;99472.88;;;7.93;100.00
37824;BME280;23667;43.246;26.576;2022-12-08T11:16:52;99464.13;;;7.97;100.00
37824;BME280;23667;43.246;26.576;2022-12-08T11:19:19;99455.91;;;7.74;100.00
37824;BME280;23667;43.246;26.576;2022-12-08T11:21:46;99459.53;;;7.67;100.00
37824;BME280;23667;43.246;26.576;2022-12-08T11:24:22;99465.56;;;7.18;100.00
37824;BME280;23667;43.246;26.576;2022-12-08T11:26:58;99477.56;;;7.25;100.00
37824;BME280;23667;43.246;26.576;2022-12-08T11:29:25;99459.22;;;7.36;100.00
37824;BME280;23667;43.246;26.576;2022-12-08T11:32:14;99458.28;;;7.86;100.00
37824;BME280;23667;43.246;26.576;2022-12-08T11:34:50;99452.22;;;8.29;100.00
37824;BME280;23667;43.246;26.576;2022-12-08T11:37:38;99440.78;;;8.38;100.00
37824;BME280;23667;43.246;26.576;2022-12-08T11:40:07;99437.34;;;8.37;100.00
37824;BME280;23667;43.246;26.576;2022-12-08T11:42:58;99426.47;;;8.59;100.00
37824;BME280;23667;43.246;26.576;2022-12-08T11:45:29;99429.00;;;8.62;100.00
37824;BME280;23667;43.246;26.576;2022-12-08T11:50:37;99429.56;;;8.36;100.00
37824;BME280;23667;43.246;26.576;2022-12-08T11:53:06;99426.59;;;7.69;100.00
37824;BME280;23667;43.246;26.576;2022-12-08T11:55:37;99432.22;;;7.46;100.00
37824;BME280;23667;43.246;26.576;2022-12-08T11:58:44;99438.50;;;7.34;100.00
37824;BME280;23667;43.246;26.576;2022-12-08T12:01:21;99436.47;;;7.50;100.00
37824;BME280;23667;43.246;26.576;2022-12-08T12:03:53;99434.72;;;7.52;100.00
37824;BME280;23667;43.246;26.576;2022-12-08T12:20:02;99421.38;;;7.24;100.00
37824;BME280;23667;43.246;26.576;2022-12-08T12:22:32;99425.06;;;7.09;100.00
37824;BME280;23667;43.246;26.576;2022-12-08T12:24:59;99438.28;;;6.95;100.00
37824;BME280;23667;43.246;26.576;2022-12-08T12:27:38;99433.88;;;7.00;100.00
37824;BME280;23667;43.246;26.576;2022-12-08T12:30:18;99431.94;;;7.13;100.00
37824;BME280;23667;43.246;26.576;2022-12-08T12:32:50;99430.66;;;7.37;100.00
37824;BME280;23667;43.246;26.576;2022-12-08T12:35:35;99430.31;;;7.56;100.00
37824;BME280;23667;43.246;26.576;2022-12-08T12:38:29;99438.09;;;7.56;100.00
37824;BME280;23667;43.246;26.576;2022-12-08T12:41:11;99422.16;;;7.74;100.00
37824;BME280;23667;43.246;26.576;2022-12-08T12:43:38;99422.94;;;7.33;100.00
37824;BME280;23667;43.246;26.576;2022-12-08T12:48:50;99435.06;;;7.32;100.00
37824;BME280;23667;43.246;26.576;2022-12-08T12:51:43;99436.94;;;7.24;100.00
37824;BME280;23667;43.246;26.576;2022-12-08T12:54:23;99425.75;;;7.20;100.00
37824;BME280;23667;43.246;26.576;2022-12-08T13:02:26;99434.34;;;7.24;100.00
37824;BME280;23667;43.246;26.576;2022-12-08T13:04:59;99434.00;;;6.91;100.00
37824;BME280;23667;43.246;26.576;2022-12-08T13:07:41;99438.84;;;6.58;100.00
37824;BME280;23667;43.246;26.576;2022-12-08T13:15:40;99447.44;;;6.60;100.00
37824;BME280;23667;43.246;26.576;2022-12-08T13:21:11;99445.34;;;6.24;100.00
37824;BME280;23667;43.246;26.576;2022-12-08T13:23:46;99441.81;;;6.29;100.00
37824;BME280;23667;43.246;26.576;2022-12-08T13:26:25;99436.97;;;6.06;100.00
37824;BME280;23667;43.246;26.576;2022-12-08T13:39:34;99448.34;;;5.90;100.00
37824;BME280;23667;43.246;26.576;2022-12-08T13:44:40;99453.56;;;5.87;100.00
37824;BME280;23667;43.246;26.576;2022-12-08T13:47:12;99450.09;;;5.86;100.00
37824;BME280;23667;43.246;26.576;2022-12-08T13:49:48;99465.44;;;6.06;100.00
37824;BME280;23667;43.246;26.576;2022-12-08T13:52:30;99460.00;;;6.28;100.00
37824;BME280;23667;43.246;26.576;2022-12-08T13:54:56;99468.72;;;6.19;100.00
37824;BME280;23667;43.246;26.576;2022-12-08T13:59:48;99460.19;;;6.11;100.00
37824;BME280;23667;43.246;26.576;2022-12-08T14:02:15;99473.88;;;6.21;100.00
37824;BME280;23667;43.246;26.576;2022-12-08T14:04:45;99467.06;;;6.13;100.00
37824;BME280;23667;43.246;26.576;2022-12-08T14:07:12;99463.06;;;5.86;100.00
37824;BME280;23667;43.246;26.576;2022-12-08T14:09:39;99456.28;;;5.73;100.00
37824;BME280;23667;43.246;26.576;2022-12-08T14:12:08;99460.38;;;5.94;100.00
37824;BME280;23667;43.246;26.576;2022-12-08T14:14:41;99460.38;;;5.92;100.00
37824;BME280;23667;43.246;26.576;2022-12-08T14:17:17;99459.41;;;6.04;100.00
37824;BME280;23667;43.246;26.576;2022-12-08T14:19:57;99461.94;;;6.10;100.00
37824;BME280;23667;43.246;26.576;2022-12-08T14:22:23;99458.53;;;6.05;100.00
37824;BME280;23667;43.246;26.576;2022-12-08T14:24:51;99457.00;;;5.87;100.00
37824;BME280;23667;43.246;26.576;2022-12-08T14:27:23;99458.16;;;5.59;100.00
37824;BME280;23667;43.246;26.576;2022-12-08T14:29:51;99464.25;;;5.55;100.00
37824;BME280;23667;43.246;26.576;2022-12-08T14:32:24;99464.28;;;5.50;100.00
37824;BME280;23667;43.246;26.576;2022-12-08T14:34:59;99459.09;;;5.53;100.00
37824;BME280;23667;43.246;26.576;2022-12-08T14:37:27;99456.53;;;5.47;100.00
37824;BME280;23667;43.246;26.576;2022-12-08T14:39:57;99462.38;;;5.67;100.00